createdAt,value
2019-05-21T00:00:25.778Z,13.83
2019-05-21T00:02:56.249Z,12.90
2019-05-21T00:05:26.717Z,12.67
2019-05-21T00:07:57.122Z,12.80
2019-05-21T00:10:27.552Z,11.47
2019-05-21T00:12:57.961Z,17.53
2019-05-21T00:15:28.479Z,18.40
2019-05-21T00:17:58.884Z,18.67
2019-05-21T00:20:29.333Z,17.37
2019-05-21T00:22:59.818Z,21.63
2019-05-21T00:25:30.252Z,13.90
2019-05-21T00:28:23.366Z,16.03
2019-05-21T00:31:47.813Z,17.80
2019-05-21T00:35:12.029Z,15.70
2019-05-21T00:38:37.054Z,13.53
2019-05-21T00:42:04.542Z,13.60
2019-05-21T00:44:39.621Z,12.13
2019-05-21T00:47:11.917Z,14.23
2019-05-21T00:49:42.592Z,15.73
2019-05-21T00:52:13.067Z,12.80
2019-05-21T00:54:43.581Z,15.03
2019-05-21T00:57:13.996Z,14.93
2019-05-21T00:59:44.492Z,14.87
2019-05-21T01:02:14.885Z,14.57
2019-05-21T01:04:59.573Z,14.53
2019-05-21T01:07:17.485Z,17.00
2019-05-21T01:09:47.916Z,20.43
2019-05-21T01:12:18.313Z,20.17
2019-05-21T01:14:48.760Z,21.23
2019-05-21T01:17:19.223Z,14.43
2019-05-21T01:19:49.656Z,18.23
2019-05-21T01:22:20.088Z,14.27
2019-05-21T01:24:50.532Z,19.10
2019-05-21T01:27:20.996Z,18.50
2019-05-21T01:29:51.604Z,15.47
2019-05-21T01:32:22.003Z,13.63
2019-05-21T01:34:52.510Z,14.00
2019-05-21T01:37:23.190Z,15.43
2019-05-21T01:39:53.642Z,18.63
2019-05-21T01:42:25.114Z,17.13
2019-05-21T01:44:55.562Z,23.70
2019-05-21T01:47:26.090Z,16.70
2019-05-21T01:49:56.610Z,15.80
2019-05-21T01:52:27.019Z,18.50
2019-05-21T01:54:57.454Z,18.77
2019-05-21T01:57:27.861Z,15.60
2019-05-21T01:59:58.299Z,23.97
2019-05-21T02:02:28.690Z,18.20
2019-05-21T02:04:59.127Z,17.63
2019-05-21T02:07:29.531Z,17.50
2019-05-21T02:09:59.970Z,17.40
2019-05-21T02:12:30.372Z,18.83
2019-05-21T02:15:00.820Z,20.87
2019-05-21T02:17:31.220Z,16.73
2019-05-21T02:20:01.660Z,16.70
2019-05-21T02:22:32.095Z,17.17
2019-05-21T02:25:02.558Z,16.97
2019-05-21T02:27:32.957Z,17.67
2019-05-21T02:30:04.098Z,15.27
2019-05-21T02:32:34.911Z,17.83
2019-05-21T02:35:06.305Z,15.00
2019-05-21T02:37:41.711Z,21.27
2019-05-21T02:40:13.584Z,16.77
2019-05-21T02:42:44.305Z,16.83
2019-05-21T02:45:15.552Z,19.00
2019-05-21T02:47:45.949Z,17.63
2019-05-21T02:50:17.636Z,26.70
2019-05-21T02:52:48.046Z,19.03
2019-05-21T02:55:20.091Z,17.13
2019-05-21T02:57:50.488Z,13.67
2019-05-21T03:00:28.699Z,16.20
2019-05-21T03:03:00.820Z,17.23
2019-05-21T03:05:31.329Z,20.57
2019-05-21T03:08:01.768Z,17.20
2019-05-21T03:10:32.242Z,15.53
2019-05-21T03:13:02.645Z,19.97
2019-05-21T03:15:33.152Z,18.87
2019-05-21T03:18:03.537Z,19.07
2019-05-21T03:20:33.972Z,20.43
2019-05-21T03:23:04.379Z,17.87
2019-05-21T03:25:34.824Z,19.63
2019-05-21T03:28:05.373Z,17.23
2019-05-21T03:30:35.832Z,20.40
2019-05-21T03:33:06.367Z,17.83
2019-05-21T03:35:36.864Z,18.17
2019-05-21T03:38:07.288Z,18.97
2019-05-21T03:40:37.782Z,16.20
2019-05-21T03:43:08.189Z,20.73
2019-05-21T03:45:38.707Z,18.27
2019-05-21T03:48:09.142Z,17.17
2019-05-21T03:50:40.462Z,18.07
2019-05-21T03:53:10.962Z,17.93
2019-05-21T03:55:41.409Z,18.43
2019-05-21T03:58:11.914Z,18.73
2019-05-21T04:00:42.312Z,16.30
2019-05-21T04:03:12.754Z,18.70
2019-05-21T04:05:43.151Z,18.23
2019-05-21T04:08:13.671Z,17.47
2019-05-21T04:10:44.151Z,19.93
2019-05-21T04:13:16.411Z,17.90
2019-05-21T04:15:57.455Z,18.00
2019-05-21T04:18:29.686Z,18.47
2019-05-21T04:21:00.145Z,19.43
2019-05-21T04:23:30.644Z,19.67
2019-05-21T04:26:02.104Z,20.67
2019-05-21T04:28:32.621Z,19.57
2019-05-21T04:31:03.022Z,20.67
2019-05-21T04:33:33.472Z,26.33
2019-05-21T04:36:03.953Z,19.23
2019-05-21T04:38:34.392Z,19.60
2019-05-21T04:41:04.782Z,18.10
2019-05-21T04:43:35.230Z,29.50
2019-05-21T04:46:05.701Z,34.10
2019-05-21T04:48:36.150Z,38.53
2019-05-21T04:51:06.549Z,31.80
2019-05-21T04:53:36.997Z,35.33
2019-05-21T04:56:07.405Z,36.23
2019-05-21T04:58:38.234Z,37.63
2019-05-21T05:01:08.754Z,24.73
2019-05-21T05:03:39.193Z,23.63
2019-05-21T05:06:09.664Z,24.50
2019-05-21T05:08:40.186Z,32.57
2019-05-21T05:11:10.591Z,29.87
2019-05-21T05:13:41.040Z,33.43
2019-05-21T05:16:11.717Z,32.73
2019-05-21T05:18:42.222Z,35.07
2019-05-21T05:21:12.627Z,41.17
2019-05-21T05:23:43.089Z,41.93
2019-05-21T05:26:13.744Z,44.00
2019-05-21T05:28:44.256Z,47.90
2019-05-21T05:31:15.396Z,44.20
2019-05-21T05:33:47.086Z,47.23
2019-05-21T05:36:17.491Z,46.10
2019-05-21T05:38:47.932Z,49.00
2019-05-21T05:41:18.340Z,50.90
2019-05-21T05:43:48.855Z,49.80
2019-05-21T05:46:19.331Z,54.97
2019-05-21T05:48:51.414Z,62.53
2019-05-21T05:51:22.054Z,56.70
2019-05-21T05:53:58.482Z,59.63
2019-05-21T05:56:29.586Z,59.80
2019-05-21T05:59:00.141Z,64.97
2019-05-21T06:01:32.180Z,60.83
2019-05-21T06:04:02.613Z,63.23
2019-05-21T06:06:33.012Z,59.53
2019-05-21T06:09:05.486Z,58.27
2019-05-21T06:11:35.968Z,61.57
2019-05-21T06:14:06.482Z,58.40
2019-05-21T06:16:36.895Z,58.57
2019-05-21T06:19:07.362Z,57.83
2019-05-21T06:21:37.756Z,56.37
2019-05-21T06:24:08.198Z,55.47
2019-05-21T06:26:38.636Z,55.13
2019-05-21T06:29:09.080Z,55.10
2019-05-21T06:31:39.562Z,54.70
2019-05-21T06:34:10.003Z,50.70
2019-05-21T06:36:40.398Z,53.70
2019-05-21T06:39:10.981Z,55.33
2019-05-21T06:41:41.439Z,61.20
2019-05-21T06:44:11.877Z,68.20
2019-05-21T06:46:42.268Z,69.60
2019-05-21T06:49:12.716Z,60.10
2019-05-21T06:51:43.113Z,61.17
2019-05-21T06:54:13.560Z,62.50
2019-05-21T06:56:44.024Z,61.87
2019-05-21T06:59:14.468Z,69.67
2019-05-21T07:01:44.865Z,64.43
2019-05-21T07:04:15.312Z,62.70
2019-05-21T07:06:45.783Z,63.47
2019-05-21T07:09:16.492Z,67.97
2019-05-21T07:11:46.891Z,59.57
2019-05-21T07:14:17.331Z,58.60
2019-05-21T07:16:47.727Z,59.93
2019-05-21T07:19:18.166Z,61.47
2019-05-21T07:21:48.615Z,68.87
2019-05-21T07:24:19.053Z,65.80
2019-05-21T07:26:49.577Z,60.93
2019-05-21T07:29:19.978Z,61.63
2019-05-21T07:31:50.426Z,69.93
2019-05-21T07:34:20.834Z,59.93
2019-05-21T07:36:51.289Z,58.00
2019-05-21T07:39:21.697Z,66.07
2019-05-21T07:41:52.147Z,60.47
2019-05-21T07:44:22.542Z,60.63
2019-05-21T07:46:53.073Z,62.37
2019-05-21T07:49:23.820Z,64.20
2019-05-21T07:51:54.260Z,66.20
2019-05-21T07:54:27.936Z,60.33
2019-05-21T07:56:57.961Z,54.97
2019-05-21T07:59:28.361Z,54.67
2019-05-21T08:01:58.818Z,55.80
2019-05-21T08:04:29.225Z,55.03
2019-05-21T08:06:59.698Z,57.67
2019-05-21T08:09:30.181Z,51.43
2019-05-21T08:12:00.622Z,56.40
2019-05-21T08:14:31.027Z,49.43
2019-05-21T08:17:01.486Z,49.50
2019-05-21T08:19:32.042Z,48.90
2019-05-21T08:22:02.580Z,48.83
2019-05-21T08:24:33.565Z,45.73
2019-05-21T08:27:04.084Z,43.47
2019-05-21T08:29:34.743Z,51.17
2019-05-21T08:32:05.289Z,44.57
2019-05-21T08:34:35.690Z,46.50
2019-05-21T08:37:06.418Z,45.43
2019-05-21T08:39:36.932Z,45.37
2019-05-21T08:42:07.513Z,45.63
2019-05-21T08:44:37.904Z,42.37
2019-05-21T08:47:08.367Z,40.50
2019-05-21T08:49:38.763Z,35.10
2019-05-21T08:52:09.271Z,39.80
2019-05-21T08:54:50.181Z,36.10
2019-05-21T08:57:21.164Z,36.40
2019-05-21T08:59:51.566Z,30.10
2019-05-21T09:02:23.840Z,29.13
2019-05-21T09:04:54.246Z,33.90
2019-05-21T09:07:24.756Z,27.00
2019-05-21T09:09:55.233Z,28.13
2019-05-21T09:12:25.893Z,23.73
2019-05-21T09:14:56.287Z,24.67
2019-05-21T09:17:26.738Z,25.13
2019-05-21T09:19:57.142Z,27.20
2019-05-21T09:22:27.595Z,23.90
2019-05-21T09:24:58.005Z,26.43
2019-05-21T09:27:28.447Z,22.82
2019-05-21T09:29:58.851Z,16.12
2019-05-21T09:32:29.375Z,16.85
2019-05-21T09:34:59.777Z,19.62
2019-05-21T09:37:30.282Z,17.50
2019-05-21T09:40:00.865Z,21.27
2019-05-21T09:42:31.327Z,18.27
2019-05-21T09:45:01.738Z,17.40
2019-05-21T09:47:32.245Z,19.20
2019-05-21T09:50:03.495Z,15.40
2019-05-21T09:52:34.406Z,16.67
2019-05-21T09:55:06.148Z,20.08
2019-05-21T09:57:53.623Z,19.20
2019-05-21T10:00:35.062Z,21.75
2019-05-21T10:03:07.215Z,18.27
2019-05-21T10:05:37.616Z,15.00
2019-05-21T10:08:08.068Z,16.23
2019-05-21T10:10:38.468Z,22.77
2019-05-21T10:13:08.979Z,16.87
2019-05-21T10:15:39.437Z,15.78
2019-05-21T10:18:09.944Z,16.20
2019-05-21T10:20:40.459Z,15.88
2019-05-21T10:23:10.924Z,15.00
2019-05-21T10:25:41.448Z,15.83
2019-05-21T10:28:11.878Z,13.78
2019-05-21T10:30:42.569Z,14.78
2019-05-21T10:33:13.046Z,14.40
2019-05-21T10:35:43.575Z,15.32
2019-05-21T10:38:14.048Z,14.13
2019-05-21T10:40:45.847Z,12.85
2019-05-21T10:43:16.506Z,14.87
2019-05-21T10:45:47.026Z,12.65
2019-05-21T10:48:17.466Z,13.05
2019-05-21T10:50:47.871Z,10.80
2019-05-21T10:53:19.655Z,16.70
2019-05-21T10:55:50.574Z,12.00
2019-05-21T10:58:21.119Z,13.00
2019-05-21T11:00:53.318Z,11.80
2019-05-21T11:03:25.561Z,13.75
2019-05-21T11:06:09.571Z,16.17
2019-05-21T11:08:29.247Z,12.35
2019-05-21T11:10:59.695Z,14.28
2019-05-21T11:13:30.122Z,14.78
2019-05-21T11:16:00.625Z,13.58
2019-05-21T11:18:31.022Z,12.03
2019-05-21T11:21:01.526Z,15.75
2019-05-21T11:23:31.952Z,14.35
2019-05-21T11:26:02.399Z,15.85
2019-05-21T11:28:32.902Z,9.48
2019-05-21T11:31:03.334Z,13.62
2019-05-21T11:33:34.186Z,12.75
2019-05-21T11:36:04.773Z,12.70
2019-05-21T11:38:39.887Z,8.05
2019-05-21T11:41:07.311Z,10.00
2019-05-21T11:43:37.882Z,8.73
2019-05-21T11:46:08.328Z,10.38
2019-05-21T11:48:38.764Z,9.25
2019-05-21T11:51:12.510Z,8.95
2019-05-21T11:53:41.353Z,10.63
2019-05-21T11:56:11.789Z,11.38
2019-05-21T11:58:42.194Z,13.83
2019-05-21T12:01:12.720Z,11.25
2019-05-21T12:03:44.084Z,5.60
2019-05-21T12:06:14.511Z,7.97
2019-05-21T12:08:56.433Z,8.98
2019-05-21T12:11:17.415Z,9.68
2019-05-21T12:13:47.895Z,10.25
2019-05-21T12:16:18.338Z,9.43
2019-05-21T12:18:48.728Z,16.62
2019-05-21T12:21:19.229Z,10.25
2019-05-21T12:23:49.616Z,8.23
2019-05-21T12:26:20.045Z,11.25
2019-05-21T12:28:51.514Z,7.67
2019-05-21T12:31:22.027Z,7.90
2019-05-21T12:33:52.463Z,8.48
2019-05-21T12:36:22.946Z,9.35
2019-05-21T12:38:53.447Z,7.55
2019-05-21T12:41:23.999Z,7.90
2019-05-21T12:43:54.428Z,10.48
2019-05-21T12:46:24.855Z,8.08
2019-05-21T12:48:55.279Z,6.15
2019-05-21T12:51:26.008Z,7.35
2019-05-21T12:53:56.782Z,7.65
2019-05-21T12:56:27.357Z,9.93
2019-05-21T12:59:00.661Z,7.22
2019-05-21T13:01:29.962Z,11.60
2019-05-21T13:04:00.398Z,8.40
2019-05-21T13:06:30.792Z,7.80
2019-05-21T13:09:07.868Z,9.75
2019-05-21T13:11:36.803Z,7.05
2019-05-21T13:14:07.404Z,8.10
2019-05-21T13:16:39.624Z,7.08
2019-05-21T13:19:11.275Z,7.25
2019-05-21T13:21:43.346Z,5.65
2019-05-21T13:24:13.894Z,7.92
2019-05-21T13:26:46.392Z,8.38
2019-05-21T13:29:16.831Z,9.20
2019-05-21T13:31:48.708Z,7.03
2019-05-21T13:34:20.780Z,9.15
2019-05-21T13:36:53.795Z,10.48
2019-05-21T13:39:25.754Z,7.78
2019-05-21T13:41:57.914Z,7.47
2019-05-21T13:44:28.390Z,6.25
2019-05-21T13:47:00.747Z,6.47
2019-05-21T13:49:33.053Z,8.08
2019-05-21T13:52:03.560Z,10.93
2019-05-21T13:54:34.297Z,7.05
2019-05-21T13:57:04.813Z,5.55
2019-05-21T13:59:35.416Z,4.90
2019-05-21T14:02:08.144Z,8.28
2019-05-21T14:04:38.603Z,7.47
2019-05-21T14:07:09.113Z,10.03
2019-05-21T14:09:39.499Z,6.53
2019-05-21T14:12:10.019Z,9.73
2019-05-21T14:14:40.452Z,8.80
2019-05-21T14:17:11.121Z,9.60
2019-05-21T14:19:41.701Z,6.22
2019-05-21T14:22:12.136Z,8.37
2019-05-21T14:24:42.534Z,6.80
2019-05-21T14:27:13.043Z,5.28
2019-05-21T14:29:43.641Z,5.93
2019-05-21T14:32:14.360Z,8.63
2019-05-21T14:35:00.324Z,14.50
2019-05-21T14:37:17.924Z,6.57
2019-05-21T14:39:48.370Z,7.25
2019-05-21T14:42:18.768Z,7.20
2019-05-21T14:44:49.200Z,6.10
2019-05-21T14:47:19.656Z,6.28
2019-05-21T14:49:50.084Z,6.97
2019-05-21T14:52:20.550Z,4.40
2019-05-21T14:54:50.985Z,5.97
2019-05-21T14:57:21.382Z,4.10
2019-05-21T14:59:51.811Z,4.15
2019-05-21T15:02:22.203Z,9.08
2019-05-21T15:04:52.799Z,6.22
2019-05-21T15:07:23.298Z,5.25
2019-05-21T15:09:53.893Z,9.40
2019-05-21T15:12:24.288Z,6.67
2019-05-21T15:14:54.715Z,8.03
2019-05-21T15:17:25.280Z,4.65
2019-05-21T15:19:57.609Z,13.48
2019-05-21T15:22:28.020Z,10.50
2019-05-21T15:24:58.522Z,8.98
2019-05-21T15:27:28.926Z,6.40
2019-05-21T15:29:59.581Z,5.93
2019-05-21T15:32:30.872Z,7.93
2019-05-21T15:35:01.381Z,10.17
2019-05-21T15:37:31.840Z,7.83
2019-05-21T15:40:05.476Z,7.27
2019-05-21T15:42:35.937Z,6.43
2019-05-21T15:45:08.313Z,11.70
2019-05-21T15:47:38.709Z,8.10
2019-05-21T15:50:09.671Z,9.37
2019-05-21T15:52:40.061Z,7.30
2019-05-21T15:55:10.713Z,9.03
2019-05-21T15:57:41.197Z,9.67
2019-05-21T16:00:15.756Z,12.87
2019-05-21T16:02:46.154Z,9.60
2019-05-21T16:05:16.740Z,10.13
2019-05-21T16:07:47.270Z,8.53
2019-05-21T16:10:17.914Z,14.03
2019-05-21T16:12:48.304Z,33.50
2019-05-21T16:15:18.809Z,13.40
2019-05-21T16:17:49.268Z,12.77
2019-05-21T16:20:20.114Z,15.43
2019-05-21T16:22:50.610Z,17.53
2019-05-21T16:25:22.099Z,14.30
2019-05-21T16:27:53.480Z,14.30
2019-05-21T16:30:25.250Z,15.00
2019-05-21T16:32:55.879Z,19.10
2019-05-21T16:35:26.508Z,23.13
2019-05-21T16:37:56.905Z,35.73
2019-05-21T16:40:28.374Z,22.50
2019-05-21T16:42:58.923Z,26.60
2019-05-21T16:45:29.382Z,27.03
2019-05-21T16:47:59.976Z,26.43
2019-05-21T16:50:30.530Z,22.10
2019-05-21T16:53:00.927Z,20.80
2019-05-21T16:55:33.521Z,32.90
2019-05-21T16:58:03.978Z,13.67
2019-05-21T17:00:34.488Z,9.33
2019-05-21T17:03:04.962Z,14.67
2019-05-21T17:05:35.444Z,13.63
2019-05-21T17:08:05.908Z,25.07
2019-05-21T17:10:36.358Z,34.33
2019-05-21T17:13:06.826Z,20.57
2019-05-21T17:15:37.498Z,14.50
2019-05-21T17:18:07.902Z,13.73
2019-05-21T17:20:38.476Z,25.73
2019-05-21T17:23:08.868Z,13.20
2019-05-21T17:25:39.391Z,14.73
2019-05-21T17:28:09.874Z,23.83
2019-05-21T17:30:40.462Z,28.33
2019-05-21T17:33:11.006Z,27.20
2019-05-21T17:35:41.529Z,20.20
2019-05-21T17:38:12.070Z,21.40
2019-05-21T17:40:42.785Z,17.47
2019-05-21T17:43:14.947Z,19.97
2019-05-21T17:45:46.029Z,18.83
2019-05-21T17:48:16.425Z,19.33
2019-05-21T17:50:47.482Z,25.43
2019-05-21T17:53:20.363Z,29.60
2019-05-21T17:55:51.437Z,16.97
2019-05-21T17:58:21.925Z,22.33
2019-05-21T18:00:54.441Z,26.83
2019-05-21T18:03:26.219Z,22.73
2019-05-21T18:05:58.630Z,27.93
2019-05-21T18:08:32.481Z,30.70
2019-05-21T18:11:03.051Z,28.80
2019-05-21T18:13:34.139Z,26.60
2019-05-21T18:16:06.238Z,22.80
2019-05-21T18:18:36.986Z,22.10
2019-05-21T18:21:08.091Z,27.33
2019-05-21T18:23:39.115Z,19.43
2019-05-21T18:26:09.509Z,26.77
2019-05-21T18:28:40.368Z,24.30
2019-05-21T18:31:11.963Z,27.33
2019-05-21T18:33:42.565Z,22.97
2019-05-21T18:36:13.301Z,26.10
2019-05-21T18:38:43.739Z,23.03
2019-05-21T18:41:15.284Z,30.57
2019-05-21T18:43:45.784Z,30.80
2019-05-21T18:46:17.264Z,25.40
2019-05-21T18:48:47.702Z,30.17
2019-05-21T18:51:18.108Z,33.17
2019-05-21T18:53:48.930Z,33.47
2019-05-21T18:56:19.455Z,36.57
2019-05-21T18:58:50.084Z,39.43
2019-05-21T19:01:20.683Z,35.07
2019-05-21T19:03:51.343Z,32.80
2019-05-21T19:06:21.811Z,38.97
2019-05-21T19:08:53.365Z,33.03
2019-05-21T19:11:23.823Z,38.03
2019-05-21T19:13:54.598Z,36.97
2019-05-21T19:16:25.215Z,32.77
2019-05-21T19:18:55.656Z,35.83
2019-05-21T19:21:26.123Z,36.93
2019-05-21T19:23:56.569Z,31.83
2019-05-21T19:26:27.231Z,41.00
2019-05-21T19:28:57.666Z,36.63
2019-05-21T19:31:28.310Z,43.23
2019-05-21T19:34:00.611Z,31.57
2019-05-21T19:36:33.413Z,54.17
2019-05-21T19:39:05.129Z,47.07
2019-05-21T19:41:37.192Z,42.57
2019-05-21T19:44:14.747Z,43.03
2019-05-21T19:46:45.358Z,48.33
2019-05-21T19:49:17.177Z,38.20
2019-05-21T19:51:55.489Z,54.03
2019-05-21T19:54:30.549Z,39.33
2019-05-21T19:57:02.235Z,81.27
2019-05-21T19:59:39.123Z,64.87
2019-05-21T20:02:10.307Z,42.97
2019-05-21T20:04:47.562Z,47.13
2019-05-21T20:07:19.858Z,41.73
2019-05-21T20:09:54.774Z,41.77
2019-05-21T20:12:32.019Z,38.10
2019-05-21T20:15:02.629Z,40.47
2019-05-21T20:17:36.264Z,37.90
2019-05-21T20:20:08.438Z,41.77
2019-05-21T20:22:39.955Z,37.97
2019-05-21T20:25:14.772Z,36.80
2019-05-21T20:27:50.879Z,40.10
2019-05-21T20:30:23.287Z,34.13
2019-05-21T20:32:54.583Z,40.53
2019-05-21T20:35:27.491Z,34.47
2019-05-21T20:38:03.064Z,33.97
2019-05-21T20:40:33.661Z,32.73
2019-05-21T20:43:05.773Z,32.77
2019-05-21T20:45:40.490Z,37.10
2019-05-21T20:48:14.342Z,37.80
2019-05-21T20:50:46.233Z,34.03
2019-05-21T20:53:18.869Z,37.03
2019-05-21T20:55:49.870Z,32.00
2019-05-21T20:58:20.459Z,30.23
2019-05-21T21:01:04.628Z,29.13
2019-05-21T21:03:35.782Z,34.97
2019-05-21T21:06:06.482Z,34.13
2019-05-21T21:08:37.789Z,41.30
2019-05-21T21:11:09.210Z,43.77
2019-05-21T21:13:39.862Z,49.67
2019-05-21T21:16:11.052Z,48.07
2019-05-21T21:18:41.799Z,52.90
2019-05-21T21:21:12.485Z,41.97
2019-05-21T21:23:43.721Z,44.67
2019-05-21T21:26:18.849Z,38.00
2019-05-21T21:28:49.325Z,38.80
2019-05-21T21:31:19.770Z,46.13
2019-05-21T21:33:50.469Z,26.77
2019-05-21T21:36:21.351Z,33.87
2019-05-21T21:38:51.924Z,52.83
2019-05-21T21:41:22.450Z,27.93
2019-05-21T21:43:52.858Z,30.47
2019-05-21T21:46:23.487Z,30.50
2019-05-21T21:48:58.338Z,27.57
2019-05-21T21:51:28.858Z,24.53
2019-05-21T21:53:59.321Z,30.23
2019-05-21T21:56:29.843Z,30.30
2019-05-21T21:59:00.483Z,25.97
2019-05-21T22:01:50.323Z,31.00
2019-05-21T22:04:25.613Z,23.43
2019-05-21T22:06:56.630Z,24.20
2019-05-21T22:09:29.534Z,22.57
2019-05-21T22:12:00.171Z,23.10
2019-05-21T22:14:31.249Z,24.93
2019-05-21T22:17:02.383Z,20.20
2019-05-21T22:19:33.619Z,29.40
2019-05-21T22:22:05.735Z,33.83
2019-05-21T22:24:36.279Z,24.07
2019-05-21T22:27:06.740Z,23.77
2019-05-21T22:29:37.264Z,22.87
2019-05-21T22:32:07.833Z,23.93
2019-05-21T22:34:38.345Z,18.87
2019-05-21T22:37:10.596Z,23.93
2019-05-21T22:39:42.906Z,15.10
2019-05-21T22:42:14.212Z,18.07
2019-05-21T22:44:44.897Z,22.70
2019-05-21T22:47:15.984Z,20.30
2019-05-21T22:49:46.447Z,24.00
2019-05-21T22:52:16.893Z,25.70
2019-05-21T22:54:47.282Z,28.97
2019-05-21T22:57:17.713Z,24.07
2019-05-21T22:59:48.117Z,21.30
2019-05-21T23:02:20.261Z,25.10
2019-05-21T23:04:50.934Z,21.43
2019-05-21T23:07:21.564Z,19.57
2019-05-21T23:09:52.660Z,22.00
2019-05-21T23:12:23.535Z,21.57
2019-05-21T23:14:54.006Z,20.90
2019-05-21T23:17:26.335Z,20.80
2019-05-21T23:20:15.043Z,22.13
2019-05-21T23:22:49.154Z,23.23
2019-05-21T23:25:21.378Z,26.60
2019-05-21T23:27:52.260Z,19.23
2019-05-21T23:30:22.998Z,17.10
2019-05-21T23:32:53.699Z,19.80
2019-05-21T23:35:24.365Z,17.70
2019-05-21T23:37:56.519Z,18.13
2019-05-21T23:40:27.663Z,15.10
2019-05-21T23:42:58.369Z,14.13
2019-05-21T23:45:30.545Z,15.70
2019-05-21T23:48:01.425Z,20.10
2019-05-21T23:50:31.902Z,21.97
2019-05-21T23:53:03.006Z,18.50
2019-05-21T23:55:34.000Z,18.40
2019-05-21T23:58:04.531Z,19.67
